createdAt,value
2018-09-26T00:00:12.074Z,12.47
2018-09-26T00:01:12.547Z,12.32
2018-09-26T00:02:13.038Z,12.22
2018-09-26T00:03:13.488Z,12.13
2018-09-26T00:04:13.956Z,12.06
2018-09-26T00:05:14.426Z,12.00
2018-09-26T00:06:14.898Z,11.96
2018-09-26T00:07:15.367Z,11.94
2018-09-26T00:08:15.838Z,11.94
2018-09-26T00:09:16.305Z,11.96
2018-09-26T00:10:16.776Z,11.99
2018-09-26T00:11:17.249Z,12.01
2018-09-26T00:12:17.714Z,12.05
2018-09-26T00:13:18.184Z,12.09
2018-09-26T00:14:18.651Z,12.14
2018-09-26T00:15:19.121Z,12.19
2018-09-26T00:16:19.591Z,12.25
2018-09-26T00:17:20.060Z,12.31
2018-09-26T00:18:20.529Z,12.37
2018-09-26T00:19:20.997Z,12.44
2018-09-26T00:20:21.467Z,12.50
2018-09-26T00:21:21.939Z,12.59
2018-09-26T00:22:22.405Z,12.65
2018-09-26T00:23:22.878Z,12.74
2018-09-26T00:24:23.344Z,12.83
2018-09-26T00:25:23.816Z,12.89
2018-09-26T00:26:24.283Z,12.94
2018-09-26T00:27:24.754Z,13.03
2018-09-26T00:28:25.222Z,13.09
2018-09-26T00:29:25.694Z,13.16
2018-09-26T00:30:26.162Z,13.20
2018-09-26T00:31:26.635Z,13.27
2018-09-26T00:32:27.104Z,13.32
2018-09-26T00:33:27.573Z,13.38
2018-09-26T00:34:28.043Z,13.45
2018-09-26T00:35:28.512Z,13.49
2018-09-26T00:36:28.984Z,13.54
2018-09-26T00:37:29.515Z,13.58
2018-09-26T00:38:29.925Z,13.63
2018-09-26T00:39:30.396Z,13.67
2018-09-26T00:40:30.869Z,13.73
2018-09-26T00:41:31.340Z,13.78
2018-09-26T00:42:31.811Z,13.82
2018-09-26T00:43:32.281Z,13.86
2018-09-26T00:44:32.752Z,13.91
2018-09-26T00:45:33.223Z,13.95
2018-09-26T00:46:33.693Z,13.96
2018-09-26T00:47:34.165Z,13.99
2018-09-26T00:48:34.637Z,14.02
2018-09-26T00:49:35.109Z,14.05
2018-09-26T00:50:35.578Z,14.10
2018-09-26T00:51:36.052Z,14.11
2018-09-26T00:52:36.523Z,14.13
2018-09-26T00:53:36.995Z,14.15
2018-09-26T00:54:37.465Z,14.15
2018-09-26T00:55:37.940Z,14.19
2018-09-26T00:56:38.409Z,14.22
2018-09-26T00:57:38.883Z,14.24
2018-09-26T00:58:39.354Z,14.27
2018-09-26T00:59:39.824Z,14.29
2018-09-26T01:00:40.300Z,14.30
2018-09-26T01:01:40.770Z,14.31
2018-09-26T01:02:41.243Z,14.33
2018-09-26T01:03:41.715Z,14.36
2018-09-26T01:04:42.188Z,14.37
2018-09-26T01:05:42.658Z,14.38
2018-09-26T01:06:43.132Z,14.40
2018-09-26T01:07:43.603Z,14.42
2018-09-26T01:08:44.077Z,14.45
2018-09-26T01:09:44.549Z,14.46
2018-09-26T01:10:45.028Z,14.47
2018-09-26T01:11:45.494Z,14.47
2018-09-26T01:12:45.967Z,14.48
2018-09-26T01:13:46.439Z,14.49
2018-09-26T01:14:46.911Z,14.49
2018-09-26T01:15:47.386Z,14.50
2018-09-26T01:16:47.856Z,14.53
2018-09-26T01:17:48.331Z,14.53
2018-09-26T01:18:48.801Z,14.55
2018-09-26T01:19:49.276Z,14.53
2018-09-26T01:20:49.749Z,14.54
2018-09-26T01:21:50.221Z,14.55
2018-09-26T01:22:50.694Z,14.56
2018-09-26T01:23:51.166Z,14.55
2018-09-26T01:24:51.644Z,14.52
2018-09-26T01:25:52.113Z,14.45
2018-09-26T01:26:52.585Z,14.37
2018-09-26T01:27:53.059Z,14.25
2018-09-26T01:28:53.531Z,14.14
2018-09-26T01:29:54.005Z,14.03
2018-09-26T01:30:54.478Z,13.90
2018-09-26T01:31:54.951Z,13.78
2018-09-26T01:32:55.424Z,13.63
2018-09-26T01:33:55.902Z,13.49
2018-09-26T01:34:56.367Z,13.34
2018-09-26T01:35:56.840Z,13.20
2018-09-26T01:36:57.316Z,13.03
2018-09-26T01:37:57.784Z,12.86
2018-09-26T01:38:58.256Z,12.70
2018-09-26T01:39:58.726Z,12.53
2018-09-26T01:40:59.198Z,12.36
2018-09-26T01:41:59.670Z,12.19
2018-09-26T01:43:00.142Z,12.04
2018-09-26T01:44:00.610Z,11.92
2018-09-26T01:45:01.086Z,11.83
2018-09-26T01:46:01.552Z,11.77
2018-09-26T01:47:02.022Z,11.70
2018-09-26T01:48:02.491Z,11.66
2018-09-26T01:49:02.965Z,11.63
2018-09-26T01:50:03.431Z,11.61
2018-09-26T01:51:03.901Z,11.63
2018-09-26T01:52:04.370Z,11.65
2018-09-26T01:53:04.839Z,11.70
2018-09-26T01:54:05.308Z,11.71
2018-09-26T01:55:05.776Z,11.74
2018-09-26T01:56:06.248Z,11.79
2018-09-26T01:57:06.715Z,11.83
2018-09-26T01:58:07.184Z,11.90
2018-09-26T01:59:07.654Z,11.96
2018-09-26T02:00:08.122Z,12.01
2018-09-26T02:01:08.591Z,12.09
2018-09-26T02:02:09.066Z,12.17
2018-09-26T02:03:09.529Z,12.24
2018-09-26T02:04:10.000Z,12.29
2018-09-26T02:05:10.469Z,12.36
2018-09-26T02:06:10.941Z,12.44
2018-09-26T02:07:11.406Z,12.50
2018-09-26T02:08:11.878Z,12.56
2018-09-26T02:09:12.346Z,12.63
2018-09-26T02:10:12.815Z,12.70
2018-09-26T02:11:13.284Z,12.74
2018-09-26T02:12:13.755Z,12.83
2018-09-26T02:13:14.224Z,12.87
2018-09-26T02:14:14.692Z,12.91
2018-09-26T02:15:15.164Z,12.97
2018-09-26T02:16:15.633Z,13.01
2018-09-26T02:17:16.102Z,13.05
2018-09-26T02:18:16.574Z,13.08
2018-09-26T02:19:17.042Z,13.13
2018-09-26T02:20:17.514Z,13.19
2018-09-26T02:21:17.985Z,13.23
2018-09-26T02:22:18.458Z,13.26
2018-09-26T02:23:18.925Z,13.28
2018-09-26T02:24:19.396Z,13.32
2018-09-26T02:25:19.867Z,13.36
2018-09-26T02:26:20.337Z,13.40
2018-09-26T02:27:20.807Z,13.42
2018-09-26T02:28:21.279Z,13.45
2018-09-26T02:29:21.749Z,13.47
2018-09-26T02:30:22.221Z,13.51
2018-09-26T02:31:22.693Z,13.57
2018-09-26T02:32:23.163Z,13.58
2018-09-26T02:33:23.635Z,13.60
2018-09-26T02:34:24.107Z,13.64
2018-09-26T02:35:24.577Z,13.65
2018-09-26T02:36:25.100Z,13.68
2018-09-26T02:37:25.521Z,13.71
2018-09-26T02:38:25.994Z,13.73
2018-09-26T02:39:26.464Z,13.73
2018-09-26T02:40:26.936Z,13.78
2018-09-26T02:41:27.406Z,13.81
2018-09-26T02:42:27.879Z,13.85
2018-09-26T02:43:28.350Z,13.85
2018-09-26T02:44:28.824Z,13.89
2018-09-26T02:45:29.296Z,13.91
2018-09-26T02:46:29.769Z,13.93
2018-09-26T02:47:30.242Z,13.95
2018-09-26T02:48:30.712Z,13.98
2018-09-26T02:49:31.188Z,14.00
2018-09-26T02:50:31.657Z,14.02
2018-09-26T02:51:32.128Z,14.03
2018-09-26T02:52:32.603Z,14.06
2018-09-26T02:53:33.075Z,14.07
2018-09-26T02:54:33.545Z,14.10
2018-09-26T02:55:34.048Z,14.14
2018-09-26T02:56:34.492Z,14.14
2018-09-26T02:57:34.962Z,14.16
2018-09-26T02:58:35.441Z,14.19
2018-09-26T02:59:35.908Z,14.21
2018-09-26T03:00:36.379Z,14.22
2018-09-26T03:01:36.854Z,14.22
2018-09-26T03:02:37.325Z,14.24
2018-09-26T03:03:37.800Z,14.24
2018-09-26T03:04:38.269Z,14.25
2018-09-26T03:05:38.750Z,14.29
2018-09-26T03:06:39.215Z,14.30
2018-09-26T03:07:39.695Z,14.32
2018-09-26T03:08:40.166Z,14.29
2018-09-26T03:09:40.634Z,14.29
2018-09-26T03:10:41.131Z,14.28
2018-09-26T03:11:41.584Z,14.29
2018-09-26T03:12:42.054Z,14.23
2018-09-26T03:13:42.529Z,14.17
2018-09-26T03:14:43.000Z,14.12
2018-09-26T03:15:43.473Z,14.05
2018-09-26T03:16:43.948Z,13.97
2018-09-26T03:17:44.490Z,13.85
2018-09-26T03:18:44.892Z,13.73
2018-09-26T03:19:45.363Z,13.60
2018-09-26T03:20:45.838Z,13.47
2018-09-26T03:21:46.310Z,13.33
2018-09-26T03:22:46.781Z,13.18
2018-09-26T03:23:47.253Z,13.03
2018-09-26T03:24:47.726Z,12.86
2018-09-26T03:25:48.200Z,12.70
2018-09-26T03:26:48.670Z,12.54
2018-09-26T03:27:49.141Z,12.37
2018-09-26T03:28:49.612Z,12.21
2018-09-26T03:29:50.084Z,12.05
2018-09-26T03:30:50.554Z,11.89
2018-09-26T03:31:51.025Z,11.78
2018-09-26T03:32:51.492Z,11.69
2018-09-26T03:33:52.058Z,11.60
2018-09-26T03:34:52.439Z,11.56
2018-09-26T03:35:52.903Z,11.51
2018-09-26T03:36:53.374Z,11.50
2018-09-26T03:37:53.844Z,11.48
2018-09-26T03:38:54.319Z,11.50
2018-09-26T03:39:54.783Z,11.51
2018-09-26T03:40:55.252Z,11.55
2018-09-26T03:41:55.722Z,11.58
2018-09-26T03:42:56.192Z,11.63
2018-09-26T03:43:56.658Z,11.67
2018-09-26T03:44:57.128Z,11.73
2018-09-26T03:45:57.598Z,11.79
2018-09-26T03:46:58.066Z,11.83
2018-09-26T03:47:58.535Z,11.91
2018-09-26T03:48:59.005Z,11.97
2018-09-26T03:49:59.473Z,12.03
2018-09-26T03:50:59.943Z,12.12
2018-09-26T03:52:00.411Z,12.18
2018-09-26T03:53:00.881Z,12.25
2018-09-26T03:54:01.354Z,12.30
2018-09-26T03:55:01.826Z,12.38
2018-09-26T03:56:02.289Z,12.44
2018-09-26T03:57:02.758Z,12.50
2018-09-26T03:58:03.229Z,12.57
2018-09-26T03:59:03.702Z,12.61
2018-09-26T04:00:04.168Z,12.69
2018-09-26T04:01:04.636Z,12.75
2018-09-26T04:02:05.111Z,12.82
2018-09-26T04:03:05.579Z,12.87
2018-09-26T04:04:06.048Z,12.94
2018-09-26T04:05:06.587Z,12.96
2018-09-26T04:06:06.988Z,13.04
2018-09-26T04:07:07.463Z,13.09
2018-09-26T04:08:07.927Z,13.14
2018-09-26T04:09:08.397Z,13.17
2018-09-26T04:10:08.869Z,13.23
2018-09-26T04:11:09.340Z,13.28
2018-09-26T04:12:09.809Z,13.33
2018-09-26T04:13:10.363Z,13.36
2018-09-26T04:14:10.754Z,13.39
2018-09-26T04:15:11.223Z,13.42
2018-09-26T04:16:11.694Z,13.46
2018-09-26T04:17:12.166Z,13.51
2018-09-26T04:18:12.636Z,13.54
2018-09-26T04:19:13.109Z,13.58
2018-09-26T04:20:13.586Z,13.58
2018-09-26T04:21:14.048Z,13.60
2018-09-26T04:22:14.520Z,13.64
2018-09-26T04:23:14.991Z,13.66
2018-09-26T04:24:15.463Z,13.69
2018-09-26T04:25:15.940Z,13.73
2018-09-26T04:26:16.511Z,13.74
2018-09-26T04:27:16.947Z,13.76
2018-09-26T04:28:17.351Z,13.80
2018-09-26T04:29:17.820Z,13.83
2018-09-26T04:30:18.383Z,13.84
2018-09-26T04:31:18.766Z,13.87
2018-09-26T04:32:19.238Z,13.87
2018-09-26T04:33:19.929Z,13.89
2018-09-26T04:34:20.182Z,13.91
2018-09-26T04:35:20.654Z,13.91
2018-09-26T04:36:21.126Z,13.96
2018-09-26T04:37:21.598Z,13.97
2018-09-26T04:38:22.069Z,13.97
2018-09-26T04:39:22.545Z,13.99
2018-09-26T04:40:23.013Z,14.02
2018-09-26T04:41:23.488Z,14.05
2018-09-26T04:42:23.959Z,14.08
2018-09-26T04:43:24.435Z,14.10
2018-09-26T04:44:24.904Z,14.12
2018-09-26T04:45:25.377Z,14.11
2018-09-26T04:46:25.851Z,14.13
2018-09-26T04:47:26.323Z,14.14
2018-09-26T04:48:26.794Z,14.18
2018-09-26T04:49:27.269Z,14.18
2018-09-26T04:50:27.741Z,14.18
2018-09-26T04:51:28.215Z,14.22
2018-09-26T04:52:28.685Z,14.22
2018-09-26T04:53:29.159Z,14.23
2018-09-26T04:54:29.630Z,14.27
2018-09-26T04:55:30.105Z,14.25
2018-09-26T04:56:30.578Z,14.23
2018-09-26T04:57:31.051Z,14.20
2018-09-26T04:58:31.525Z,14.13
2018-09-26T04:59:32.000Z,14.07
2018-09-26T05:00:32.470Z,13.98
2018-09-26T05:01:32.943Z,13.86
2018-09-26T05:02:33.416Z,13.74
2018-09-26T05:03:33.891Z,13.60
2018-09-26T05:04:34.363Z,13.49
2018-09-26T05:05:34.838Z,13.34
2018-09-26T05:06:35.309Z,13.19
2018-09-26T05:07:35.778Z,13.03
2018-09-26T05:08:36.251Z,12.87
2018-09-26T05:09:36.724Z,12.71
2018-09-26T05:10:37.194Z,12.55
2018-09-26T05:11:37.667Z,12.41
2018-09-26T05:12:38.137Z,12.26
2018-09-26T05:13:38.610Z,12.12
2018-09-26T05:14:39.098Z,11.99
2018-09-26T05:15:39.550Z,11.88
2018-09-26T05:16:40.020Z,11.78
2018-09-26T05:17:40.490Z,11.72
2018-09-26T05:18:40.963Z,11.65
2018-09-26T05:19:41.434Z,11.60
2018-09-26T05:20:42.103Z,11.58
2018-09-26T05:21:42.371Z,11.59
2018-09-26T05:22:42.868Z,11.61
2018-09-26T05:23:43.311Z,11.62
2018-09-26T05:24:43.780Z,11.66
2018-09-26T05:25:44.247Z,11.73
2018-09-26T05:26:44.716Z,11.79
2018-09-26T05:27:45.189Z,11.84
2018-09-26T05:28:45.655Z,11.91
2018-09-26T05:29:46.128Z,11.98
2018-09-26T05:30:46.595Z,12.07
2018-09-26T05:31:47.062Z,12.17
2018-09-26T05:32:47.535Z,12.26
2018-09-26T05:33:48.005Z,12.36
2018-09-26T05:34:48.470Z,12.46
2018-09-26T05:35:48.940Z,12.55
2018-09-26T05:36:49.410Z,12.67
2018-09-26T05:37:49.878Z,12.76
2018-09-26T05:38:50.348Z,12.86
2018-09-26T05:39:50.818Z,12.94
2018-09-26T05:40:51.285Z,13.04
2018-09-26T05:41:51.838Z,13.14
2018-09-26T05:42:52.229Z,13.21
2018-09-26T05:43:52.697Z,13.31
2018-09-26T05:44:53.166Z,13.39
2018-09-26T05:45:53.637Z,13.45
2018-09-26T05:46:54.107Z,13.54
2018-09-26T05:47:54.575Z,13.62
2018-09-26T05:48:55.048Z,13.68
2018-09-26T05:49:55.517Z,13.78
2018-09-26T05:50:55.988Z,13.85
2018-09-26T05:51:56.462Z,13.91
2018-09-26T05:52:56.930Z,14.01
2018-09-26T05:53:57.401Z,14.06
2018-09-26T05:54:57.870Z,14.15
2018-09-26T05:55:58.346Z,14.23
2018-09-26T05:56:58.813Z,14.31
2018-09-26T05:57:59.286Z,14.38
2018-09-26T05:58:59.756Z,14.47
2018-09-26T06:00:00.230Z,14.53
2018-09-26T06:01:00.700Z,14.60
2018-09-26T06:02:01.174Z,14.66
2018-09-26T06:03:01.644Z,14.75
2018-09-26T06:04:02.115Z,14.81
2018-09-26T06:05:02.590Z,14.86
2018-09-26T06:06:03.060Z,14.91
2018-09-26T06:07:03.534Z,14.94
2018-09-26T06:08:04.006Z,15.00
2018-09-26T06:09:04.478Z,15.08
2018-09-26T06:10:04.951Z,15.11
2018-09-26T06:11:05.426Z,15.16
2018-09-26T06:12:05.895Z,15.23
2018-09-26T06:13:06.378Z,15.29
2018-09-26T06:14:06.841Z,15.34
2018-09-26T06:15:07.316Z,15.38
2018-09-26T06:16:07.790Z,15.45
2018-09-26T06:17:08.260Z,15.49
2018-09-26T06:18:09.075Z,15.52
2018-09-26T06:19:09.207Z,15.49
2018-09-26T06:20:09.682Z,15.46
2018-09-26T06:21:10.156Z,15.42
2018-09-26T06:22:10.640Z,15.36
2018-09-26T06:23:11.102Z,15.28
2018-09-26T06:24:11.575Z,15.19
2018-09-26T06:25:12.049Z,15.09
2018-09-26T06:26:12.520Z,14.97
2018-09-26T06:27:12.994Z,14.86
2018-09-26T06:28:13.468Z,14.76
2018-09-26T06:29:13.942Z,14.64
2018-09-26T06:30:14.413Z,14.50
2018-09-26T06:31:14.885Z,14.37
2018-09-26T06:32:15.561Z,14.24
2018-09-26T06:33:15.830Z,14.12
2018-09-26T06:34:16.313Z,13.99
2018-09-26T06:35:16.775Z,13.86
2018-09-26T06:36:17.247Z,13.74
2018-09-26T06:37:17.717Z,13.60
2018-09-26T06:38:18.189Z,13.48
2018-09-26T06:39:18.661Z,13.36
2018-09-26T06:40:19.139Z,13.26
2018-09-26T06:41:19.602Z,13.16
2018-09-26T06:42:20.075Z,13.10
2018-09-26T06:43:20.543Z,13.05
2018-09-26T06:44:21.015Z,13.04
2018-09-26T06:45:21.484Z,13.04
2018-09-26T06:46:21.954Z,13.06
2018-09-26T06:47:22.465Z,13.10
2018-09-26T06:48:22.996Z,13.14
2018-09-26T06:49:23.369Z,13.21
2018-09-26T06:50:23.833Z,13.27
2018-09-26T06:51:24.303Z,13.35
2018-09-26T06:52:24.774Z,13.44
2018-09-26T06:53:25.295Z,13.54
2018-09-26T06:54:25.714Z,13.65
2018-09-26T06:55:26.188Z,13.77
2018-09-26T06:56:26.654Z,13.89
2018-09-26T06:57:27.124Z,14.00
2018-09-26T06:58:27.595Z,14.10
2018-09-26T06:59:28.064Z,14.22
2018-09-26T07:00:28.533Z,14.35
2018-09-26T07:01:29.021Z,14.48
2018-09-26T07:02:29.474Z,14.59
2018-09-26T07:03:29.947Z,14.73
2018-09-26T07:04:30.417Z,14.86
2018-09-26T07:05:30.886Z,14.98
2018-09-26T07:06:31.357Z,15.10
2018-09-26T07:07:31.828Z,15.21
2018-09-26T07:08:32.299Z,15.33
2018-09-26T07:09:32.769Z,15.46
2018-09-26T07:10:33.245Z,15.56
2018-09-26T07:11:33.714Z,15.67
2018-09-26T07:12:34.187Z,15.76
2018-09-26T07:13:34.658Z,15.87
2018-09-26T07:14:35.131Z,15.99
2018-09-26T07:15:35.601Z,16.06
2018-09-26T07:16:36.075Z,16.16
2018-09-26T07:17:36.546Z,16.26
2018-09-26T07:18:37.021Z,16.34
2018-09-26T07:19:37.493Z,16.42
2018-09-26T07:20:37.967Z,16.51
2018-09-26T07:21:38.439Z,16.61
2018-09-26T07:22:38.916Z,16.72
2018-09-26T07:23:39.386Z,16.81
2018-09-26T07:24:39.860Z,16.91
2018-09-26T07:25:40.333Z,17.02
2018-09-26T07:26:40.849Z,17.09
2018-09-26T07:27:41.279Z,17.13
2018-09-26T07:28:41.754Z,17.16
2018-09-26T07:29:42.230Z,17.16
2018-09-26T07:30:42.702Z,17.13
2018-09-26T07:31:43.179Z,17.08
2018-09-26T07:32:43.655Z,17.04
2018-09-26T07:33:44.125Z,16.98
2018-09-26T07:34:44.601Z,16.93
2018-09-26T07:35:45.074Z,16.86
2018-09-26T07:36:45.548Z,16.80
2018-09-26T07:37:46.025Z,16.73
2018-09-26T07:38:46.499Z,16.65
2018-09-26T07:39:46.972Z,16.58
2018-09-26T07:40:47.445Z,16.50
2018-09-26T07:41:47.919Z,16.43
2018-09-26T07:42:48.393Z,16.36
2018-09-26T07:43:48.867Z,16.29
2018-09-26T07:44:49.340Z,16.22
2018-09-26T07:45:49.885Z,16.14
2018-09-26T07:46:50.290Z,16.07
2018-09-26T07:47:50.760Z,16.00
2018-09-26T07:48:51.232Z,15.92
2018-09-26T07:49:51.703Z,15.86
2018-09-26T07:50:52.178Z,15.79
2018-09-26T07:51:52.649Z,15.73
2018-09-26T07:52:53.134Z,15.67
2018-09-26T07:53:53.595Z,15.62
2018-09-26T07:54:54.066Z,15.57
2018-09-26T07:55:54.538Z,15.53
2018-09-26T07:56:55.009Z,15.48
2018-09-26T07:57:55.484Z,15.44
2018-09-26T07:58:56.006Z,15.39
2018-09-26T08:00:56.894Z,15.32
2018-09-26T08:01:57.364Z,15.31
2018-09-26T08:02:57.836Z,15.31
2018-09-26T08:03:58.307Z,15.34
2018-09-26T08:04:58.778Z,15.37
2018-09-26T08:05:59.252Z,15.42
2018-09-26T08:06:59.722Z,15.50
2018-09-26T08:08:00.192Z,15.60
2018-09-26T08:09:00.663Z,15.71
2018-09-26T08:10:01.132Z,15.82
2018-09-26T08:11:01.603Z,15.93
2018-09-26T08:12:02.074Z,16.05
2018-09-26T08:13:02.545Z,16.17
2018-09-26T08:14:03.017Z,16.33
2018-09-26T08:15:03.489Z,16.48
2018-09-26T08:16:03.959Z,16.64
2018-09-26T08:17:04.434Z,16.80
2018-09-26T08:18:04.911Z,16.95
2018-09-26T08:19:05.373Z,17.10
2018-09-26T08:20:05.849Z,17.26
2018-09-26T08:21:06.318Z,17.42
2018-09-26T08:22:06.791Z,17.59
2018-09-26T08:23:07.268Z,17.76
2018-09-26T08:24:07.808Z,17.92
2018-09-26T08:25:08.209Z,18.08
2018-09-26T08:26:08.682Z,18.25
2018-09-26T08:27:09.155Z,18.39
2018-09-26T08:28:09.629Z,18.56
2018-09-26T08:29:10.106Z,18.69
2018-09-26T08:30:10.576Z,18.83
2018-09-26T08:31:11.051Z,18.95
2018-09-26T08:32:11.528Z,19.07
2018-09-26T08:33:12.000Z,19.18
2018-09-26T08:34:12.473Z,19.27
2018-09-26T08:35:12.949Z,19.32
2018-09-26T08:36:13.423Z,19.34
2018-09-26T08:37:13.898Z,19.34
2018-09-26T08:38:14.372Z,19.32
2018-09-26T08:39:14.850Z,19.31
2018-09-26T08:40:15.324Z,19.28
2018-09-26T08:41:15.800Z,19.25
2018-09-26T08:42:16.273Z,19.23
2018-09-26T08:43:16.751Z,19.20
2018-09-26T08:44:17.224Z,19.16
2018-09-26T08:45:17.700Z,19.11
2018-09-26T08:46:18.173Z,19.07
2018-09-26T08:47:18.648Z,19.03
2018-09-26T08:48:19.123Z,18.98
2018-09-26T08:49:19.599Z,18.94
2018-09-26T08:50:20.074Z,18.89
2018-09-26T08:51:20.547Z,18.84
2018-09-26T08:52:21.023Z,18.78
2018-09-26T08:53:21.497Z,18.73
2018-09-26T08:54:21.971Z,18.68
2018-09-26T08:55:22.445Z,18.63
2018-09-26T08:56:22.924Z,18.59
2018-09-26T08:57:23.395Z,18.55
2018-09-26T08:58:23.867Z,18.51
2018-09-26T08:59:24.341Z,18.46
2018-09-26T09:00:24.816Z,18.44
2018-09-26T09:01:25.289Z,18.41
2018-09-26T09:02:25.808Z,18.38
2018-09-26T09:03:26.235Z,18.36
2018-09-26T09:04:26.708Z,18.33
2018-09-26T09:05:27.181Z,18.30
2018-09-26T09:06:27.654Z,18.28
2018-09-26T09:07:28.128Z,18.26
2018-09-26T09:08:28.600Z,18.24
2018-09-26T09:09:29.073Z,18.22
2018-09-26T09:10:29.545Z,18.20
2018-09-26T09:11:30.033Z,18.18
2018-09-26T09:12:30.490Z,18.17
2018-09-26T09:13:30.965Z,18.16
2018-09-26T09:14:31.541Z,18.15
2018-09-26T09:15:31.910Z,18.14
2018-09-26T09:16:32.381Z,18.13
2018-09-26T09:17:32.854Z,18.12
2018-09-26T09:18:33.326Z,18.12
2018-09-26T09:19:33.804Z,18.11
2018-09-26T09:20:34.269Z,18.11
2018-09-26T09:21:34.742Z,18.10
2018-09-26T09:22:35.213Z,18.10
2018-09-26T09:23:35.682Z,18.10
2018-09-26T09:24:36.156Z,18.11
2018-09-26T09:25:36.628Z,18.10
2018-09-26T09:26:37.104Z,18.11
2018-09-26T09:27:37.649Z,18.11
2018-09-26T09:28:38.044Z,18.13
2018-09-26T09:29:38.516Z,18.13
2018-09-26T09:30:38.985Z,18.13
2018-09-26T09:31:39.464Z,18.15
2018-09-26T09:32:39.934Z,18.16
2018-09-26T09:33:40.400Z,18.17
2018-09-26T09:34:40.870Z,18.18
2018-09-26T09:35:41.342Z,18.20
2018-09-26T09:36:41.841Z,18.20
2018-09-26T09:37:42.285Z,18.22
2018-09-26T09:38:42.755Z,18.25
2018-09-26T09:39:43.229Z,18.28
2018-09-26T09:40:43.696Z,18.32
2018-09-26T09:41:44.171Z,18.38
2018-09-26T09:42:44.642Z,18.45
2018-09-26T09:43:45.110Z,18.52
2018-09-26T09:44:45.615Z,18.61
2018-09-26T09:45:46.053Z,18.71
2018-09-26T09:46:46.523Z,18.84
2018-09-26T09:47:46.995Z,18.95
2018-09-26T09:48:47.467Z,19.09
2018-09-26T09:49:47.939Z,19.23
2018-09-26T09:50:48.410Z,19.39
2018-09-26T09:51:48.885Z,19.55
2018-09-26T09:52:49.355Z,19.71
2018-09-26T09:53:49.826Z,19.89
2018-09-26T09:54:50.300Z,20.05
2018-09-26T09:55:50.772Z,20.23
2018-09-26T09:56:51.266Z,20.40
2018-09-26T09:57:51.720Z,20.59
2018-09-26T09:58:52.191Z,20.76
2018-09-26T09:59:52.665Z,20.93
2018-09-26T10:00:53.139Z,21.09
2018-09-26T10:01:53.616Z,21.22
2018-09-26T10:02:54.231Z,21.35
2018-09-26T10:03:54.603Z,21.47
2018-09-26T10:04:55.037Z,21.59
2018-09-26T10:05:55.514Z,21.68
2018-09-26T10:06:55.989Z,21.75
2018-09-26T10:07:56.463Z,21.78
2018-09-26T10:08:56.977Z,21.80
2018-09-26T10:09:57.415Z,21.82
2018-09-26T10:10:57.890Z,21.83
2018-09-26T10:11:58.367Z,21.85
2018-09-26T10:12:58.843Z,21.84
2018-09-26T10:13:59.321Z,21.84
2018-09-26T10:14:59.796Z,21.83
2018-09-26T10:16:00.272Z,21.81
2018-09-26T10:17:00.747Z,21.80
2018-09-26T10:18:01.224Z,21.77
2018-09-26T10:19:01.697Z,21.75
2018-09-26T10:20:02.175Z,21.70
2018-09-26T10:21:02.653Z,21.67
2018-09-26T10:22:03.130Z,21.64
2018-09-26T10:23:03.601Z,21.60
2018-09-26T10:24:04.077Z,21.56
2018-09-26T10:25:04.566Z,21.54
2018-09-26T10:26:05.049Z,21.50
2018-09-26T10:27:05.506Z,21.48
2018-09-26T10:28:05.983Z,21.45
2018-09-26T10:29:06.459Z,21.43
2018-09-26T10:30:06.934Z,21.39
2018-09-26T10:31:07.409Z,21.37
2018-09-26T10:32:07.893Z,21.34
2018-09-26T10:33:08.361Z,21.32
2018-09-26T10:34:08.835Z,21.29
2018-09-26T10:35:09.311Z,21.28
2018-09-26T10:36:09.788Z,21.26
2018-09-26T10:37:10.262Z,21.24
2018-09-26T10:38:10.792Z,21.23
2018-09-26T10:39:11.213Z,21.21
2018-09-26T10:40:11.791Z,21.19
2018-09-26T10:41:12.179Z,21.18
2018-09-26T10:42:12.639Z,21.16
2018-09-26T10:43:13.115Z,21.15
2018-09-26T10:44:13.637Z,21.15
2018-09-26T10:45:14.066Z,21.14
2018-09-26T10:46:14.538Z,21.14
2018-09-26T10:47:15.013Z,21.13
2018-09-26T10:48:15.487Z,21.13
2018-09-26T10:49:15.962Z,21.12
2018-09-26T10:50:16.463Z,21.12
2018-09-26T10:51:16.911Z,21.12
2018-09-26T10:52:17.387Z,21.13
2018-09-26T10:53:17.859Z,21.13
2018-09-26T10:54:18.337Z,21.14
2018-09-26T10:55:18.809Z,21.14
2018-09-26T10:56:19.399Z,21.14
2018-09-26T10:57:19.759Z,21.15
2018-09-26T10:58:20.233Z,21.15
2018-09-26T10:59:20.709Z,21.16
2018-09-26T11:00:21.182Z,21.17
2018-09-26T11:01:21.657Z,21.18
2018-09-26T11:02:22.184Z,21.18
2018-09-26T11:03:22.606Z,21.19
2018-09-26T11:04:23.144Z,21.20
2018-09-26T11:05:23.555Z,21.21
2018-09-26T11:06:24.031Z,21.23
2018-09-26T11:07:24.503Z,21.23
2018-09-26T11:08:25.064Z,21.24
2018-09-26T11:09:25.452Z,21.26
2018-09-26T11:10:25.984Z,21.27
2018-09-26T11:11:26.399Z,21.28
2018-09-26T11:12:26.917Z,21.30
2018-09-26T11:13:27.352Z,21.30
2018-09-26T11:14:27.823Z,21.32
2018-09-26T11:15:28.450Z,21.33
2018-09-26T11:16:28.824Z,21.34
2018-09-26T11:17:29.247Z,21.34
2018-09-26T11:18:29.720Z,21.35
2018-09-26T11:19:30.194Z,21.36
2018-09-26T11:20:30.669Z,21.36
2018-09-26T11:21:31.144Z,21.38
2018-09-26T11:22:31.618Z,21.39
2018-09-26T11:23:32.090Z,21.40
2018-09-26T11:24:32.566Z,21.41
2018-09-26T11:25:33.039Z,21.43
2018-09-26T11:26:33.518Z,21.45
2018-09-26T11:27:33.988Z,21.46
2018-09-26T11:28:34.462Z,21.48
2018-09-26T11:29:34.939Z,21.50
2018-09-26T11:30:35.461Z,21.52
2018-09-26T11:31:35.884Z,21.54
2018-09-26T11:32:36.360Z,21.56
2018-09-26T11:33:36.848Z,21.58
2018-09-26T11:34:37.309Z,21.59
2018-09-26T11:35:37.782Z,21.61
2018-09-26T11:36:38.256Z,21.62
2018-09-26T11:37:38.740Z,21.65
2018-09-26T11:38:39.244Z,21.66
2018-09-26T11:39:39.684Z,21.68
2018-09-26T11:40:40.153Z,21.70
2018-09-26T11:41:40.627Z,21.72
2018-09-26T11:42:41.105Z,21.74
2018-09-26T11:43:41.576Z,21.76
2018-09-26T11:44:42.080Z,21.78
2018-09-26T11:45:42.523Z,21.80
2018-09-26T11:46:42.998Z,21.82
2018-09-26T11:47:43.471Z,21.84
2018-09-26T11:48:43.945Z,21.85
2018-09-26T11:49:44.424Z,21.87
2018-09-26T11:50:44.897Z,21.90
2018-09-26T11:51:45.370Z,21.92
2018-09-26T11:52:45.843Z,21.93
2018-09-26T11:53:46.317Z,21.95
2018-09-26T11:54:46.792Z,21.97
2018-09-26T11:55:47.294Z,21.99
2018-09-26T11:56:47.743Z,22.01
2018-09-26T11:57:48.215Z,22.03
2018-09-26T11:58:48.691Z,22.04
2018-09-26T11:59:49.164Z,22.06
2018-09-26T12:00:49.636Z,22.08
2018-09-26T12:01:50.113Z,22.10
2018-09-26T12:02:50.588Z,22.11
2018-09-26T12:03:51.061Z,22.14
2018-09-26T12:04:51.536Z,22.15
2018-09-26T12:05:52.011Z,22.17
2018-09-26T12:06:52.487Z,22.18
2018-09-26T12:07:52.959Z,22.20
2018-09-26T12:08:53.433Z,22.22
2018-09-26T12:09:53.909Z,22.24
2018-09-26T12:10:54.386Z,22.26
2018-09-26T12:11:54.859Z,22.28
2018-09-26T12:12:55.333Z,22.30
2018-09-26T12:13:55.875Z,22.32
2018-09-26T12:14:56.281Z,22.34
2018-09-26T12:15:56.756Z,22.36
2018-09-26T12:16:57.233Z,22.37
2018-09-26T12:17:57.710Z,22.39
2018-09-26T12:18:58.181Z,22.41
2018-09-26T12:19:58.662Z,22.41
2018-09-26T12:20:59.135Z,22.43
2018-09-26T12:21:59.639Z,22.45
2018-09-26T12:23:00.080Z,22.46
2018-09-26T12:24:00.554Z,22.48
2018-09-26T12:25:01.033Z,22.50
2018-09-26T12:26:01.505Z,22.51
2018-09-26T12:27:01.985Z,22.53
2018-09-26T12:28:02.455Z,22.54
2018-09-26T12:29:02.930Z,22.56
2018-09-26T12:30:03.407Z,22.57
2018-09-26T12:31:03.880Z,22.60
2018-09-26T12:32:04.355Z,22.61
2018-09-26T12:33:04.832Z,22.63
2018-09-26T12:34:05.342Z,22.63
2018-09-26T12:35:05.782Z,22.65
2018-09-26T12:36:06.263Z,22.67
2018-09-26T12:37:06.731Z,22.69
2018-09-26T12:38:07.205Z,22.71
2018-09-26T12:39:07.680Z,22.73
2018-09-26T12:40:08.213Z,22.75
2018-09-26T12:41:08.631Z,22.76
2018-09-26T12:42:09.109Z,22.79
2018-09-26T12:43:09.583Z,22.80
2018-09-26T12:44:10.060Z,22.81
2018-09-26T12:45:10.532Z,22.82
2018-09-26T12:46:11.020Z,22.85
2018-09-26T12:47:11.505Z,22.87
2018-09-26T12:48:12.047Z,22.89
2018-09-26T12:49:12.433Z,22.91
2018-09-26T12:50:12.909Z,22.93
2018-09-26T12:51:13.387Z,22.96
2018-09-26T12:52:13.893Z,22.99
2018-09-26T12:53:14.334Z,23.02
2018-09-26T12:54:14.812Z,23.05
2018-09-26T12:55:15.286Z,23.06
2018-09-26T12:56:15.761Z,23.09
2018-09-26T12:57:16.238Z,23.12
2018-09-26T12:58:16.723Z,23.15
2018-09-26T12:59:17.190Z,23.16